createdAt,value
2019-03-13T00:00:50.505Z,0.30
2019-03-13T00:03:20.907Z,0.40
2019-03-13T00:05:50.929Z,0.40
2019-03-13T00:08:21.630Z,0.40
2019-03-13T00:10:52.355Z,0.40
2019-03-13T00:13:21.910Z,0.40
2019-03-13T00:15:51.606Z,0.40
2019-03-13T00:18:21.160Z,0.40
2019-03-13T00:20:50.770Z,0.30
2019-03-13T00:23:21.009Z,0.30
2019-03-13T00:25:53.714Z,0.30
2019-03-13T00:28:24.101Z,0.30
2019-03-13T00:30:53.701Z,0.30
2019-03-13T00:33:23.823Z,0.30
2019-03-13T00:35:54.625Z,0.30
2019-03-13T00:38:25.332Z,0.20
2019-03-13T00:40:56.556Z,0.20
2019-03-13T00:43:26.643Z,0.20
2019-03-13T00:45:56.797Z,0.20
2019-03-13T00:48:27.326Z,0.20
2019-03-13T00:50:57.618Z,0.20
2019-03-13T00:53:27.612Z,0.20
2019-03-13T00:55:57.958Z,0.20
2019-03-13T00:58:30.945Z,0.20
2019-03-13T01:01:17.003Z,0.20
2019-03-13T01:04:11.926Z,0.20
2019-03-13T01:06:44.823Z,0.20
2019-03-13T01:09:15.800Z,0.20
2019-03-13T01:11:46.155Z,0.20
2019-03-13T01:14:16.292Z,0.20
2019-03-13T01:16:46.190Z,0.20
2019-03-13T01:19:16.073Z,0.10
2019-03-13T01:21:45.991Z,0.10
2019-03-13T01:24:16.111Z,0.10
2019-03-13T01:26:46.117Z,0.10
2019-03-13T01:29:35.604Z,0.10
2019-03-13T01:32:33.190Z,0.10
2019-03-13T01:35:08.860Z,0.10
2019-03-13T01:37:39.474Z,0.10
2019-03-13T01:40:11.204Z,0.10
2019-03-13T01:42:41.189Z,0.20
2019-03-13T01:45:11.846Z,0.20
2019-03-13T01:47:41.859Z,0.10
2019-03-13T01:50:11.874Z,0.20
2019-03-13T01:52:42.195Z,0.10
2019-03-13T01:55:12.935Z,0.10
2019-03-13T01:57:42.830Z,0.10
2019-03-13T02:00:13.344Z,0.10
2019-03-13T02:02:42.925Z,0.10
2019-03-13T02:05:13.888Z,0.10
2019-03-13T02:07:44.456Z,0.10
2019-03-13T02:10:14.664Z,0.10
2019-03-13T02:12:45.877Z,0.00
2019-03-13T02:15:17.782Z,0.10
2019-03-13T02:17:48.191Z,0.10
2019-03-13T02:20:20.072Z,0.10
2019-03-13T02:22:50.402Z,0.10
2019-03-13T02:25:20.373Z,0.10
2019-03-13T02:27:50.983Z,0.10
2019-03-13T02:30:21.862Z,0.10
2019-03-13T02:32:51.720Z,0.00
2019-03-13T02:35:22.063Z,0.00
2019-03-13T02:37:52.354Z,0.10
2019-03-13T02:40:22.184Z,0.00
2019-03-13T02:42:51.852Z,0.00
2019-03-13T02:45:21.577Z,0.10
2019-03-13T02:47:52.310Z,0.00
2019-03-13T02:50:22.225Z,0.10
2019-03-13T02:52:54.594Z,0.10
2019-03-13T02:55:24.195Z,0.10
2019-03-13T02:57:54.434Z,0.10
2019-03-13T03:00:37.891Z,0.20
2019-03-13T03:03:12.985Z,0.20
2019-03-13T03:05:43.430Z,0.20
2019-03-13T03:08:13.350Z,0.30
2019-03-13T03:10:44.065Z,0.30
2019-03-13T03:13:13.604Z,0.30
2019-03-13T03:15:45.259Z,0.30
2019-03-13T03:18:18.420Z,0.30
2019-03-13T03:20:48.351Z,0.40
2019-03-13T03:23:18.290Z,0.40
2019-03-13T03:25:49.078Z,0.40
2019-03-13T03:28:21.250Z,0.50
2019-03-13T03:30:50.970Z,0.50
2019-03-13T03:33:21.328Z,0.60
2019-03-13T03:35:52.039Z,0.60
2019-03-13T03:38:22.191Z,0.60
2019-03-13T03:40:52.751Z,0.60
2019-03-13T03:43:38.745Z,0.60
2019-03-13T03:45:53.684Z,0.60
2019-03-13T03:48:23.367Z,0.50
2019-03-13T03:50:53.055Z,0.50
2019-03-13T03:53:23.265Z,0.50
2019-03-13T03:55:53.054Z,0.50
2019-03-13T03:58:22.642Z,0.50
2019-03-13T04:00:53.011Z,0.50
2019-03-13T04:03:23.085Z,0.60
2019-03-13T04:05:54.055Z,0.60
2019-03-13T04:08:24.984Z,0.60
2019-03-13T04:10:55.497Z,0.70
2019-03-13T04:13:25.863Z,0.80
2019-03-13T04:15:55.825Z,0.90
2019-03-13T04:18:25.683Z,1.00
2019-03-13T04:20:56.780Z,1.10
2019-03-13T04:23:26.735Z,1.20
2019-03-13T04:25:56.661Z,1.30
2019-03-13T04:28:27.169Z,1.30
2019-03-13T04:30:57.762Z,1.30
2019-03-13T04:33:28.627Z,1.30
2019-03-13T04:35:58.554Z,1.30
2019-03-13T04:38:28.524Z,1.40
2019-03-13T04:40:58.867Z,1.40
2019-03-13T04:43:29.014Z,1.40
2019-03-13T04:45:58.892Z,1.40
2019-03-13T04:48:28.763Z,1.40
2019-03-13T04:50:59.396Z,1.50
2019-03-13T04:53:29.928Z,1.50
2019-03-13T04:56:00.618Z,1.50
2019-03-13T04:58:30.624Z,1.60
2019-03-13T05:01:01.404Z,1.60
2019-03-13T05:03:31.606Z,1.60
2019-03-13T05:06:05.521Z,1.60
2019-03-13T05:08:56.957Z,1.70
2019-03-13T05:11:26.942Z,1.80
2019-03-13T05:13:56.593Z,1.90
2019-03-13T05:16:27.581Z,2.00
2019-03-13T05:18:57.654Z,2.10
2019-03-13T05:21:27.955Z,2.30
2019-03-13T05:23:58.184Z,2.30
2019-03-13T05:26:28.414Z,2.40
2019-03-13T05:28:59.059Z,2.40
2019-03-13T05:31:31.232Z,2.50
2019-03-13T05:34:01.533Z,2.40
2019-03-13T05:36:32.201Z,2.40
2019-03-13T05:39:02.787Z,2.40
2019-03-13T05:41:33.037Z,2.50
2019-03-13T05:44:03.534Z,2.60
2019-03-13T05:46:33.477Z,2.70
2019-03-13T05:49:04.036Z,2.70
2019-03-13T05:51:43.878Z,2.80
2019-03-13T05:54:14.470Z,2.90
2019-03-13T05:56:44.870Z,3.10
2019-03-13T05:59:14.803Z,3.20
2019-03-13T06:01:44.324Z,3.20
2019-03-13T06:04:14.745Z,3.20
2019-03-13T06:06:45.024Z,3.30
2019-03-13T06:09:15.312Z,3.20
2019-03-13T06:11:45.569Z,3.30
2019-03-13T06:14:16.153Z,3.30
2019-03-13T06:16:45.831Z,3.30
2019-03-13T06:19:16.104Z,3.30
2019-03-13T06:21:46.683Z,3.40
2019-03-13T06:24:17.161Z,3.20
2019-03-13T06:26:48.080Z,3.30
2019-03-13T06:29:18.695Z,3.40
2019-03-13T06:31:48.770Z,3.60
2019-03-13T06:34:20.228Z,3.60
2019-03-13T06:36:50.258Z,3.60
2019-03-13T06:39:22.688Z,3.60
2019-03-13T06:41:52.924Z,3.60
2019-03-13T06:44:22.965Z,3.60
2019-03-13T06:46:53.134Z,3.70
2019-03-13T06:49:23.503Z,3.80
2019-03-13T06:51:53.519Z,4.00
2019-03-13T06:54:23.217Z,4.10
2019-03-13T06:56:54.539Z,4.20
2019-03-13T06:59:39.175Z,4.30
2019-03-13T07:02:40.895Z,4.40
2019-03-13T07:05:20.798Z,4.60
2019-03-13T07:08:02.447Z,4.80
2019-03-13T07:10:57.827Z,4.80
2019-03-13T07:13:53.180Z,4.80
2019-03-13T07:16:47.344Z,4.90
2019-03-13T07:19:35.061Z,4.80
2019-03-13T07:22:11.433Z,4.90
2019-03-13T07:25:13.781Z,5.00
2019-03-13T07:28:05.770Z,5.10
2019-03-13T07:31:02.483Z,5.00
2019-03-13T07:33:57.894Z,5.00
2019-03-13T07:36:52.693Z,5.10
2019-03-13T07:39:29.179Z,5.10
2019-03-13T07:42:13.056Z,5.10
2019-03-13T07:45:00.423Z,5.10
2019-03-13T07:48:01.243Z,5.30
2019-03-13T07:50:50.800Z,5.40
2019-03-13T07:53:38.174Z,5.40
2019-03-13T07:56:36.378Z,5.50
2019-03-13T07:59:27.999Z,5.50
2019-03-13T08:02:23.891Z,5.60
2019-03-13T08:05:12.980Z,5.60
2019-03-13T08:08:14.453Z,5.50
2019-03-13T08:11:09.090Z,5.60
2019-03-13T08:14:07.234Z,5.50
2019-03-13T08:17:02.402Z,5.60
2019-03-13T08:20:12.585Z,5.80
2019-03-13T08:23:14.007Z,6.00
2019-03-13T08:26:11.794Z,6.10
2019-03-13T08:29:08.595Z,6.20
2019-03-13T08:31:51.723Z,6.20
2019-03-13T08:34:52.813Z,6.40
2019-03-13T08:37:28.908Z,6.50
2019-03-13T08:40:16.786Z,6.60
2019-03-13T08:42:56.738Z,6.70
2019-03-13T08:45:43.727Z,6.70
2019-03-13T08:48:40.876Z,6.60
2019-03-13T08:51:21.319Z,6.60
2019-03-13T08:54:09.115Z,6.50
2019-03-13T08:56:59.838Z,6.70
2019-03-13T08:59:41.574Z,6.90
2019-03-13T09:02:29.049Z,7.10
2019-03-13T09:05:30.312Z,7.30
2019-03-13T09:08:25.280Z,7.20
2019-03-13T09:11:12.984Z,7.30
2019-03-13T09:13:58.207Z,7.10
2019-03-13T09:17:12.777Z,6.90
2019-03-13T09:19:52.885Z,6.90
2019-03-13T09:22:41.529Z,6.80
2019-03-13T09:25:40.853Z,6.70
2019-03-13T09:28:32.662Z,6.60
2019-03-13T09:31:25.262Z,6.60
2019-03-13T09:33:59.688Z,6.20
2019-03-13T09:36:48.696Z,6.00
2019-03-13T09:39:47.430Z,6.20
2019-03-13T09:42:44.307Z,6.30
2019-03-13T09:45:29.715Z,6.60
2019-03-13T09:48:10.818Z,6.80
2019-03-13T09:51:02.443Z,7.10
2019-03-13T09:53:41.578Z,7.40
2019-03-13T09:56:22.454Z,7.50
2019-03-13T09:59:10.280Z,7.70
2019-03-13T10:01:56.757Z,7.80
2019-03-13T10:04:53.410Z,7.80
2019-03-13T10:07:38.321Z,7.90
2019-03-13T10:10:27.997Z,8.00
2019-03-13T10:13:38.126Z,8.00
2019-03-13T10:16:22.128Z,7.90
2019-03-13T10:19:12.180Z,8.00
2019-03-13T10:22:17.209Z,7.90
2019-03-13T10:25:13.835Z,7.60
2019-03-13T10:28:02.006Z,7.40
2019-03-13T10:30:53.171Z,7.10
2019-03-13T10:33:41.022Z,6.90
2019-03-13T10:36:39.078Z,6.70
2019-03-13T10:39:45.949Z,6.60
2019-03-13T10:42:26.372Z,6.70
2019-03-13T10:45:18.435Z,6.60
2019-03-13T10:48:01.022Z,6.40
2019-03-13T10:50:59.209Z,6.10
2019-03-13T10:53:40.626Z,6.00
2019-03-13T10:56:29.627Z,5.90
2019-03-13T10:59:23.240Z,5.70
2019-03-13T11:02:22.445Z,5.60
2019-03-13T11:05:15.472Z,5.70
2019-03-13T11:08:02.764Z,5.70
2019-03-13T11:10:42.549Z,5.80
2019-03-13T11:13:24.071Z,5.90
2019-03-13T11:16:11.541Z,5.90
2019-03-13T11:19:18.306Z,6.00
2019-03-13T11:21:58.118Z,6.10
2019-03-13T11:24:49.136Z,6.10
2019-03-13T11:27:40.444Z,6.20
2019-03-13T11:30:43.139Z,6.30
2019-03-13T11:33:30.815Z,6.20
2019-03-13T11:36:18.138Z,6.20
2019-03-13T11:39:11.043Z,6.20
2019-03-13T11:41:58.640Z,6.20
2019-03-13T11:44:46.189Z,6.40
2019-03-13T11:47:47.647Z,6.40
2019-03-13T11:50:49.363Z,6.40
2019-03-13T11:53:40.054Z,6.30
2019-03-13T11:56:39.150Z,6.30
2019-03-13T11:59:35.552Z,6.40
2019-03-13T12:02:27.424Z,6.50
2019-03-13T12:05:27.524Z,6.40
2019-03-13T12:08:17.887Z,6.20
2019-03-13T12:11:12.773Z,6.20
2019-03-13T12:14:05.438Z,6.00
2019-03-13T12:16:56.343Z,6.00
2019-03-13T12:19:54.639Z,6.00
2019-03-13T12:22:53.054Z,6.10
2019-03-13T12:25:43.979Z,6.10
2019-03-13T12:28:41.656Z,6.10
2019-03-13T12:31:30.375Z,6.10
2019-03-13T12:34:28.519Z,6.20
2019-03-13T12:37:20.392Z,6.30
2019-03-13T12:40:20.433Z,6.30
2019-03-13T12:43:15.027Z,6.30
2019-03-13T12:45:58.996Z,6.30
2019-03-13T12:48:45.919Z,6.20
2019-03-13T12:51:35.393Z,6.30
2019-03-13T12:54:26.373Z,6.30
2019-03-13T12:57:14.382Z,6.30
2019-03-13T12:59:53.468Z,6.50
2019-03-13T13:02:49.362Z,6.80
2019-03-13T13:05:39.012Z,7.10
2019-03-13T13:08:36.395Z,7.50
2019-03-13T13:11:37.403Z,7.70
2019-03-13T13:14:26.404Z,7.80
2019-03-13T13:17:24.198Z,8.20
2019-03-13T13:19:54.188Z,8.30
2019-03-13T13:22:24.435Z,8.50
2019-03-13T13:24:55.359Z,8.60
2019-03-13T13:27:25.333Z,8.70
2019-03-13T13:29:55.664Z,8.60
2019-03-13T13:32:27.015Z,8.60
2019-03-13T13:34:56.775Z,8.60
2019-03-13T13:37:33.235Z,8.60
2019-03-13T13:40:08.601Z,8.30
2019-03-13T13:42:38.282Z,8.40
2019-03-13T13:45:08.805Z,8.50
2019-03-13T13:47:39.668Z,8.70
2019-03-13T13:50:09.385Z,8.90
2019-03-13T13:52:40.358Z,8.60
2019-03-13T13:55:09.989Z,8.60
2019-03-13T13:57:44.086Z,8.50
2019-03-13T14:00:15.500Z,8.30
2019-03-13T14:02:46.541Z,8.30
2019-03-13T14:05:16.857Z,8.20
2019-03-13T14:07:47.365Z,8.10
2019-03-13T14:10:19.687Z,8.30
2019-03-13T14:12:49.817Z,8.50
2019-03-13T14:15:21.319Z,8.60
2019-03-13T14:17:55.027Z,8.50
2019-03-13T14:20:24.733Z,8.50
2019-03-13T14:22:55.280Z,8.60
2019-03-13T14:25:27.158Z,8.70
2019-03-13T14:28:00.768Z,8.90
2019-03-13T14:30:30.524Z,8.90
2019-03-13T14:33:00.718Z,9.00
2019-03-13T14:35:30.827Z,9.10
2019-03-13T14:38:01.247Z,9.00
2019-03-13T14:40:32.845Z,9.00
2019-03-13T14:43:03.016Z,9.00
2019-03-13T14:45:33.557Z,9.20
2019-03-13T14:48:03.478Z,9.20
2019-03-13T14:50:36.468Z,9.00
2019-03-13T14:53:08.798Z,8.90
2019-03-13T14:55:40.820Z,8.80
2019-03-13T14:58:11.163Z,8.80
2019-03-13T15:00:43.671Z,8.90
2019-03-13T15:03:18.869Z,8.80
2019-03-13T15:05:52.567Z,8.60
2019-03-13T15:08:26.402Z,8.50
2019-03-13T15:10:56.861Z,8.40
2019-03-13T15:13:31.303Z,8.30
2019-03-13T15:16:01.070Z,8.30
2019-03-13T15:18:31.874Z,8.20
2019-03-13T15:21:02.692Z,8.20
2019-03-13T15:23:36.282Z,8.30
2019-03-13T15:26:10.690Z,8.40
2019-03-13T15:28:42.606Z,8.50
2019-03-13T15:31:12.795Z,8.60
2019-03-13T15:34:02.226Z,8.70
2019-03-13T15:36:33.791Z,9.00
2019-03-13T15:39:23.027Z,9.00
2019-03-13T15:41:55.392Z,8.80
2019-03-13T15:44:29.587Z,8.70
2019-03-13T15:47:01.855Z,8.50
2019-03-13T15:49:32.703Z,8.30
2019-03-13T15:52:08.751Z,8.20
2019-03-13T15:54:38.770Z,8.10
2019-03-13T15:57:08.674Z,8.00
2019-03-13T15:59:38.951Z,7.90
2019-03-13T16:02:09.013Z,7.80
2019-03-13T16:04:39.616Z,7.80
2019-03-13T16:07:10.136Z,7.80
2019-03-13T16:09:39.945Z,7.80
2019-03-13T16:12:10.653Z,7.80
2019-03-13T16:14:40.584Z,7.80
2019-03-13T16:17:12.106Z,7.90
2019-03-13T16:19:42.421Z,8.00
2019-03-13T16:22:15.784Z,7.90
2019-03-13T16:24:47.992Z,7.80
2019-03-13T16:27:20.464Z,7.70
2019-03-13T16:29:51.479Z,7.70
2019-03-13T16:32:22.406Z,7.60
2019-03-13T16:34:53.831Z,7.50
2019-03-13T16:37:24.018Z,7.30
2019-03-13T16:39:55.395Z,7.20
2019-03-13T16:42:27.136Z,7.00
2019-03-13T16:44:56.827Z,6.90
2019-03-13T16:47:27.242Z,6.80
2019-03-13T16:50:00.511Z,6.70
2019-03-13T16:52:30.511Z,6.60
2019-03-13T16:55:01.131Z,6.60
2019-03-13T16:57:33.185Z,6.50
2019-03-13T17:00:03.681Z,6.50
2019-03-13T17:02:41.191Z,6.50
2019-03-13T17:05:12.474Z,6.60
2019-03-13T17:07:43.585Z,6.80
2019-03-13T17:10:17.840Z,6.80
2019-03-13T17:12:51.827Z,6.80
2019-03-13T17:15:23.926Z,6.70
2019-03-13T17:17:56.161Z,6.50
2019-03-13T17:20:28.831Z,6.50
2019-03-13T17:22:59.517Z,6.40
2019-03-13T17:25:32.923Z,6.40
2019-03-13T17:28:04.553Z,6.50
2019-03-13T17:30:34.359Z,6.60
2019-03-13T17:33:04.641Z,6.70
2019-03-13T17:35:35.058Z,6.70
2019-03-13T17:38:07.878Z,6.80
2019-03-13T17:40:38.595Z,6.80
2019-03-13T17:43:09.487Z,6.90
2019-03-13T17:45:39.797Z,7.00
2019-03-13T17:48:09.365Z,7.00
2019-03-13T17:50:39.997Z,7.00
2019-03-13T17:53:10.452Z,7.00
2019-03-13T17:55:40.931Z,6.90
2019-03-13T17:58:11.156Z,6.90
2019-03-13T18:00:49.693Z,6.90
2019-03-13T18:03:20.435Z,6.90
2019-03-13T18:05:50.083Z,6.90
2019-03-13T18:08:20.695Z,6.80
2019-03-13T18:10:50.604Z,6.80
2019-03-13T18:13:20.565Z,6.70
2019-03-13T18:15:50.615Z,6.60
2019-03-13T18:18:20.309Z,6.50
2019-03-13T18:20:51.426Z,6.40
2019-03-13T18:23:26.903Z,6.20
2019-03-13T18:25:59.402Z,6.20
2019-03-13T18:28:37.950Z,6.10
2019-03-13T18:31:11.896Z,6.00
2019-03-13T18:33:42.219Z,5.80
2019-03-13T18:36:14.192Z,5.80
2019-03-13T18:38:44.623Z,5.70
2019-03-13T18:41:14.206Z,5.70
2019-03-13T18:43:44.474Z,5.60
2019-03-13T18:46:15.419Z,5.60
2019-03-13T18:48:50.156Z,5.50
2019-03-13T18:51:20.620Z,5.50
2019-03-13T18:53:51.030Z,5.40
2019-03-13T18:56:20.740Z,5.30
2019-03-13T18:58:50.454Z,5.30
2019-03-13T19:01:20.417Z,5.30
2019-03-13T19:03:51.360Z,5.30
2019-03-13T19:06:21.667Z,5.20
2019-03-13T19:08:52.591Z,5.20
2019-03-13T19:11:23.306Z,5.20
2019-03-13T19:13:58.081Z,5.20
2019-03-13T19:16:26.881Z,5.10
2019-03-13T19:18:56.796Z,5.10
2019-03-13T19:21:26.816Z,5.10
2019-03-13T19:23:56.479Z,5.00
2019-03-13T19:26:26.399Z,5.10
2019-03-13T19:28:57.103Z,5.00
2019-03-13T19:31:27.123Z,5.00
2019-03-13T19:33:57.514Z,4.90
2019-03-13T19:36:27.878Z,4.80
2019-03-13T19:38:58.275Z,4.80
2019-03-13T19:41:28.501Z,4.80
2019-03-13T19:43:58.874Z,4.70
2019-03-13T19:46:31.955Z,4.80
2019-03-13T19:49:00.431Z,4.80
2019-03-13T19:51:30.751Z,4.90
2019-03-13T19:54:00.610Z,4.90
2019-03-13T19:56:30.619Z,4.90
2019-03-13T19:59:02.813Z,4.80
2019-03-13T20:01:32.663Z,4.80
2019-03-13T20:04:02.345Z,4.80
2019-03-13T20:06:41.737Z,4.80
2019-03-13T20:09:05.135Z,4.70
2019-03-13T20:11:35.044Z,4.70
2019-03-13T20:14:07.559Z,4.70
2019-03-13T20:16:37.267Z,4.60
2019-03-13T20:19:07.615Z,4.50
2019-03-13T20:21:38.040Z,4.40
2019-03-13T20:24:08.688Z,4.40
2019-03-13T20:26:38.692Z,4.40
2019-03-13T20:29:08.968Z,4.30
2019-03-13T20:31:40.784Z,4.30
2019-03-13T20:34:11.135Z,4.30
2019-03-13T20:36:42.520Z,4.30
2019-03-13T20:39:12.556Z,4.30
2019-03-13T20:41:44.867Z,4.30
2019-03-13T20:44:15.144Z,4.20
2019-03-13T20:46:45.576Z,4.10
2019-03-13T20:49:18.278Z,4.20
2019-03-13T20:51:48.313Z,4.20
2019-03-13T20:54:18.436Z,4.10
2019-03-13T20:56:48.354Z,4.10
2019-03-13T20:59:19.135Z,4.10
2019-03-13T21:01:49.150Z,4.10
2019-03-13T21:04:19.100Z,4.10
2019-03-13T21:06:48.706Z,4.10
2019-03-13T21:09:19.411Z,4.10
2019-03-13T21:11:49.453Z,4.10
2019-03-13T21:14:21.912Z,4.10
2019-03-13T21:16:51.551Z,4.00
2019-03-13T21:19:21.483Z,4.00
2019-03-13T21:21:52.228Z,3.90
2019-03-13T21:24:21.871Z,3.90
2019-03-13T21:26:52.067Z,3.80
2019-03-13T21:29:22.312Z,3.80
2019-03-13T21:31:52.852Z,3.80
2019-03-13T21:34:23.160Z,3.70
2019-03-13T21:36:52.955Z,3.70
2019-03-13T21:39:27.582Z,3.70
2019-03-13T21:41:57.536Z,3.60
2019-03-13T21:44:27.092Z,3.60
2019-03-13T21:46:56.998Z,3.60
2019-03-13T21:49:27.835Z,3.60
2019-03-13T21:51:59.222Z,3.50
2019-03-13T21:54:29.136Z,3.50
2019-03-13T21:56:59.468Z,3.50
2019-03-13T21:59:29.238Z,3.50
2019-03-13T22:01:58.680Z,3.60
2019-03-13T22:04:28.987Z,3.60
2019-03-13T22:07:03.380Z,3.60
2019-03-13T22:09:33.050Z,3.60
2019-03-13T22:12:03.968Z,3.60
2019-03-13T22:14:33.928Z,3.60
2019-03-13T22:17:04.492Z,3.50
2019-03-13T22:19:34.674Z,3.50
2019-03-13T22:22:05.171Z,3.40
2019-03-13T22:24:34.757Z,3.40
2019-03-13T22:27:04.836Z,3.40
2019-03-13T22:29:34.707Z,3.40
2019-03-13T22:32:05.034Z,3.40
2019-03-13T22:34:36.634Z,3.30
2019-03-13T22:37:06.908Z,3.20
2019-03-13T22:39:37.128Z,3.20
2019-03-13T22:42:07.676Z,3.20
2019-03-13T22:44:38.698Z,3.20
2019-03-13T22:47:09.334Z,3.10
2019-03-13T22:49:39.763Z,3.20
2019-03-13T22:52:09.671Z,3.10
2019-03-13T22:54:40.987Z,3.20
2019-03-13T22:57:11.394Z,3.10
2019-03-13T22:59:41.284Z,3.10
2019-03-13T23:02:11.654Z,3.20
2019-03-13T23:04:42.620Z,3.10
2019-03-13T23:07:13.435Z,3.10
2019-03-13T23:09:43.409Z,3.10
2019-03-13T23:12:14.280Z,3.10
2019-03-13T23:14:44.573Z,3.00
2019-03-13T23:17:15.564Z,3.00
2019-03-13T23:19:45.397Z,3.00
2019-03-13T23:22:15.371Z,3.00
2019-03-13T23:24:45.944Z,3.00
2019-03-13T23:27:16.219Z,2.90
2019-03-13T23:29:46.327Z,2.90
2019-03-13T23:32:17.139Z,2.90
2019-03-13T23:34:47.171Z,2.90
2019-03-13T23:37:17.252Z,2.90
2019-03-13T23:39:47.271Z,2.90
2019-03-13T23:42:17.266Z,2.90
2019-03-13T23:44:47.431Z,2.90
2019-03-13T23:47:17.911Z,2.80
2019-03-13T23:49:47.622Z,2.80
2019-03-13T23:52:18.383Z,2.90
2019-03-13T23:54:49.053Z,2.90
2019-03-13T23:57:19.079Z,2.90
2019-03-13T23:59:49.271Z,2.90
